This is the latest recevied weather packets stored in our database for station/object DG5MG. If no packets are shown the sender has not sent any weather packets the latest 10 day(s).
| Time | Temp. | Humidity | Pressure | Rain* | Wind** | Luminosity | Snow |
|---|---|---|---|---|---|---|---|
| 1778085305 | 12.78° C | 96% | 1011.2 hPa | 0 mm | - | 177 W/m² | - |
| 1778082605 | 12.78° C | 96% | 1010.5 hPa | 1.27 mm | - | 373 W/m² | - |
| 1778082005 | 12.78° C | 96% | 1010.5 hPa | 6.1 mm | - | 420 W/m² | - |
| 1778080806 | 11.67° C | 96% | 1011.1 hPa | 6.86 mm | - | 516 W/m² | - |
| 1778079606 | 11.67° C | 95% | 1011.2 hPa | 6.1 mm | - | 615 W/m² | - |
| 1778073906 | 19.44° C | 61% | 1009.5 hPa | 0 mm | - | 1045 W/m² | - |
| 1778073605 | 19.44° C | 61% | 1009.5 hPa | 0 mm | - | 1063 W/m² | - |
| 1778069405 | 18.33° C | 64% | 1010.5 hPa | 0 mm | - | 1250 W/m² | - |
| 1778067005 | 17.78° C | 63% | 1010.5 hPa | 0 mm | - | 1284 W/m² | - |
| 1778063405 | 17.78° C | 66% | 1011.2 hPa | 0 mm | - | 1227 W/m² | - |
| 1778063105 | 17.78° C | 65% | 1011.3 hPa | 0 mm | - | 1216 W/m² | - |
| 1778061606 | 17.22° C | 64% | 1011.5 hPa | 0 mm | - | 1152 W/m² | - |
| 1778061305 | 17.22° C | 64% | 1011.7 hPa | 0 mm | - | 1137 W/m² | - |
| 1778059505 | 16.67° C | 67% | 1012 hPa | 0 mm | - | 1033 W/m² | - |
| 1778056805 | 16.67° C | 67% | 1011.9 hPa | 0 mm | - | 841 W/m² | - |
| 1778056505 | 16.67° C | 68% | 1011.9 hPa | 0 mm | - | 818 W/m² | - |
| 1778053805 | 17.78° C | 69% | 1012.2 hPa | 0 mm | - | 600 W/m² | - |
| 1778051405 | 15° C | 85% | 1012.5 hPa | 0 mm | - | 406 W/m² | - |
| 1778051105 | 15° C | 85% | 1012.5 hPa | 0 mm | - | 382 W/m² | - |
| 1778048705 | 11.67° C | 98% | 1012.5 hPa | 0 mm | - | 206 W/m² | - |
| 1778048405 | 11.67° C | 98% | 1012.5 hPa | 0 mm | - | 185 W/m² | - |
| 1778047805 | 10.56° C | 98% | 1012.5 hPa | 0 mm | - | 146 W/m² | - |
| 1778046005 | 10.56° C | 98% | 1012.5 hPa | 0 mm | - | 0 W/m² | - |
| 1778045705 | 10.56° C | 98% | 1012.5 hPa | 0 mm | - | 0 W/m² | - |
| 1778044505 | 10° C | 98% | 1012.5 hPa | 0 mm | - | 0 W/m² | - |
* Rain latest hour (hover to see other rain measurements)
** Current wind speed in m/s (hover to see current wind gust speed)